Port Angeles, Washington
Current Conditions -  °F | °C
As of 5:53 AM on Sunday 21 Dec 2014 (Local Time) from KCLM Reporting Station
Overcast Overcast  
Wind Chill: 41°   Ceiling: 3300
Heat Index: 47°   Visibility: 10mi
Dew Point: 43°   Wind: 14mph
Humidity: 86%   Direction: 310°NW
Pressure: 29.78"   Gusts: 20mph
Location:  48.12°N, 123.43°W
Report Text: KCLM 211353Z AUTO 31012G17KT 10SM FEW022 BKN033 OVC050 08/06 A2978 RMK AO2 RAB15E38 SLP086 P0000 T00830061 TSNO $
Loading
Personal Weather Stations






























Interactive Weather Map New forecast layout! Learn more

10-Day Weather Forecast

Advertisements
Track Severe Weather on mobile